createdAt,value
2023-05-12T00:01:42.051Z,101516.63
2023-05-12T00:03:45.575Z,101515.78
2023-05-12T00:05:49.132Z,101506.97
2023-05-12T00:07:52.545Z,101513.06
2023-05-12T00:09:55.889Z,101519.16
2023-05-12T00:12:00.733Z,101512.22
2023-05-12T00:14:04.172Z,101511.38
2023-05-12T00:16:07.987Z,101513.91
2023-05-12T00:18:11.340Z,101515.78
2023-05-12T00:20:14.699Z,101520.09
2023-05-12T00:22:18.174Z,101509.59
2023-05-12T00:24:21.544Z,101516.53
2023-05-12T00:26:25.082Z,101520.00
2023-05-12T00:28:30.840Z,101520.84
2023-05-12T00:30:34.358Z,101526.09
2023-05-12T00:32:37.816Z,101513.81
2023-05-12T00:34:42.225Z,101530.41
2023-05-12T00:36:45.570Z,101517.28
2023-05-12T00:38:48.925Z,101524.22
2023-05-12T00:40:52.345Z,101527.59
2023-05-12T00:42:55.661Z,101529.31
2023-05-12T00:45:00.437Z,101529.31
2023-05-12T00:47:05.019Z,101531.00
2023-05-12T00:49:09.034Z,101532.69
2023-05-12T00:51:13.979Z,101531.75
2023-05-12T00:53:17.428Z,101527.25
2023-05-12T00:55:21.715Z,101536.81
2023-05-12T00:57:27.952Z,101533.16
2023-05-12T00:59:32.178Z,101537.38
2023-05-12T01:01:37.951Z,101532.03
2023-05-12T01:03:41.824Z,101539.69
2023-05-12T01:05:51.300Z,101540.56
2023-05-12T01:07:55.132Z,101538.69
2023-05-12T01:09:59.220Z,101543.00
2023-05-12T01:12:03.920Z,101538.50
2023-05-12T01:14:08.913Z,101539.25
2023-05-12T01:16:16.478Z,101543.56
2023-05-12T01:18:22.770Z,101543.56
2023-05-12T01:20:28.572Z,101550.50
2023-05-12T01:22:33.909Z,101553.13
2023-05-12T01:24:51.888Z,101540.00
2023-05-12T01:26:57.167Z,101550.50
2023-05-12T01:29:02.566Z,101544.31
2023-05-12T01:31:07.555Z,101546.94
2023-05-12T01:33:12.780Z,101550.31
2023-05-12T01:35:16.170Z,101552.00
2023-05-12T01:37:26.860Z,101549.38
2023-05-12T01:39:31.071Z,101553.72
2023-05-12T01:41:34.482Z,101549.28
2023-05-12T01:43:39.202Z,101553.72
2023-05-12T01:45:42.562Z,101552.75
2023-05-12T01:47:46.585Z,101557.19
2023-05-12T01:49:50.081Z,101555.50
2023-05-12T01:51:53.438Z,101557.28
2023-05-12T01:54:02.450Z,101552.84
2023-05-12T01:56:09.299Z,101564.22
2023-05-12T01:58:13.166Z,101558.13
2023-05-12T02:00:18.777Z,101562.53
2023-05-12T02:02:24.677Z,101566.09
2023-05-12T02:04:28.188Z,101573.03
2023-05-12T02:06:33.108Z,101569.56
2023-05-12T02:08:36.688Z,101569.56
2023-05-12T02:10:40.926Z,101565.25
2023-05-12T02:12:44.343Z,101571.34
2023-05-12T02:14:47.999Z,101574.06
2023-05-12T02:16:53.084Z,101574.91
2023-05-12T02:18:59.531Z,101581.03
2023-05-12T02:21:03.313Z,101577.56
2023-05-12T02:23:06.692Z,101578.50
2023-05-12T02:25:10.767Z,101578.50
2023-05-12T02:27:15.445Z,101582.06
2023-05-12T02:29:19.028Z,101580.38
2023-05-12T02:31:22.474Z,101582.06
2023-05-12T02:33:27.454Z,101582.06
2023-05-12T02:35:30.931Z,101582.91
2023-05-12T02:37:34.324Z,101589.94
2023-05-12T02:39:37.810Z,101584.69
2023-05-12T02:41:41.248Z,101592.47
2023-05-12T02:43:44.621Z,101586.38
2023-05-12T02:45:48.357Z,101582.06
2023-05-12T02:47:51.825Z,101587.31
2023-05-12T02:49:56.984Z,101576.97
2023-05-12T02:52:00.481Z,101586.66
2023-05-12T02:54:04.057Z,101585.81
2023-05-12T02:56:08.830Z,101585.81
2023-05-12T02:58:12.336Z,101591.06
2023-05-12T03:00:16.492Z,101578.84
2023-05-12T03:02:20.007Z,101585.03
2023-05-12T03:04:23.482Z,101584.28
2023-05-12T03:06:28.282Z,101584.28
2023-05-12T03:08:31.774Z,101583.44
2023-05-12T03:10:35.383Z,101586.19
2023-05-12T03:12:38.819Z,101591.56
2023-05-12T03:14:42.260Z,101599.53
2023-05-12T03:16:45.869Z,101589.94
2023-05-12T03:18:50.312Z,101593.50
2023-05-12T03:20:53.769Z,101597.91
2023-05-12T03:23:00.450Z,101598.75
2023-05-12T03:25:05.408Z,101596.22
2023-05-12T03:27:09.000Z,101598.00
2023-05-12T03:29:12.694Z,101598.94
2023-05-12T03:31:16.551Z,101593.69
2023-05-12T03:33:20.005Z,101601.56
2023-05-12T03:35:23.451Z,101598.94
2023-05-12T03:37:27.356Z,101595.47
2023-05-12T03:39:32.446Z,101603.34
2023-05-12T03:41:35.902Z,101605.91
2023-05-12T03:43:39.268Z,101598.00
2023-05-12T03:45:42.889Z,101597.06
2023-05-12T03:47:46.405Z,101598.75
2023-05-12T03:49:50.005Z,101596.97
2023-05-12T03:51:53.591Z,101594.34
2023-05-12T03:53:56.963Z,101603.09
2023-05-12T03:56:05.379Z,101608.34
2023-05-12T03:58:09.473Z,101605.72
2023-05-12T04:00:14.029Z,101610.03
2023-05-12T04:02:20.462Z,101610.03
2023-05-12T04:04:23.930Z,101609.94
2023-05-12T04:06:27.281Z,101613.28
2023-05-12T04:08:30.976Z,101610.56
2023-05-12T04:10:34.430Z,101610.47
2023-05-12T04:12:39.356Z,101619.13
2023-05-12T04:14:44.725Z,101614.63
2023-05-12T04:16:48.525Z,101621.47
2023-05-12T04:18:51.956Z,101625.81
2023-05-12T04:20:55.565Z,101624.78
2023-05-12T04:22:59.032Z,101621.13
2023-05-12T04:25:02.406Z,101627.13
2023-05-12T04:27:07.013Z,101625.25
2023-05-12T04:29:13.388Z,101627.78
2023-05-12T04:31:17.154Z,101632.03
2023-05-12T04:33:20.990Z,101637.06
2023-05-12T04:35:24.347Z,101636.88
2023-05-12T04:37:27.727Z,101641.97
2023-05-12T04:39:31.040Z,101635.66
2023-05-12T04:41:35.884Z,101638.13
2023-05-12T04:45:47.244Z,101644.78
2023-05-12T04:47:51.015Z,101636.81
2023-05-12T04:49:55.805Z,101648.00
2023-05-12T04:51:59.196Z,101646.13
2023-05-12T04:54:03.252Z,101651.16
2023-05-12T04:56:08.217Z,101656.22
2023-05-12T04:58:14.639Z,101656.88
2023-05-12T05:00:18.944Z,101656.69
2023-05-12T05:02:25.168Z,101664.31
2023-05-12T05:04:29.095Z,101667.69
2023-05-12T05:06:32.561Z,101666.66
2023-05-12T05:08:37.023Z,101672.59
2023-05-12T05:10:40.598Z,101676.59
2023-05-12T05:12:44.051Z,101673.69
2023-05-12T05:14:48.504Z,101682.13
2023-05-12T05:16:52.004Z,101674.94
2023-05-12T05:18:58.405Z,101675.41
2023-05-12T05:21:02.491Z,101673.38
2023-05-12T05:23:07.215Z,101682.69
2023-05-12T05:25:11.354Z,101683.34
2023-05-12T05:27:15.002Z,101683.16
2023-05-12T05:29:18.396Z,101694.34
2023-05-12T05:31:22.075Z,101692.25
2023-05-12T05:33:25.821Z,101691.84
2023-05-12T05:35:32.015Z,101704.63
2023-05-12T05:37:36.069Z,101701.59
2023-05-12T05:39:39.533Z,101702.25
2023-05-12T05:41:42.899Z,101703.00
2023-05-12T05:43:46.313Z,101706.28
2023-05-12T05:45:50.467Z,101700.69
2023-05-12T05:47:54.716Z,101703.75
2023-05-12T05:49:58.627Z,101706.09
2023-05-12T05:52:03.532Z,101703.16
2023-05-12T05:54:07.534Z,101709.84
2023-05-12T05:56:11.174Z,101710.34
2023-05-12T05:58:15.285Z,101714.38
2023-05-12T06:00:19.466Z,101712.06
2023-05-12T06:02:27.437Z,101724.75
2023-05-12T06:04:30.822Z,101720.72
2023-05-12T06:06:34.586Z,101730.81
2023-05-12T06:08:39.355Z,101728.41
2023-05-12T06:10:42.699Z,101724.28
2023-05-12T06:12:46.074Z,101734.31
2023-05-12T06:14:49.448Z,101734.53
2023-05-12T06:16:52.848Z,101735.56
2023-05-12T06:18:56.339Z,101738.53
2023-05-12T06:20:59.714Z,101730.06
2023-05-12T06:23:03.154Z,101735.44
2023-05-12T06:25:08.918Z,101724.13
2023-05-12T06:27:12.320Z,101730.66
2023-05-12T06:29:15.647Z,101735.25
2023-05-12T06:31:19.242Z,101741.59
2023-05-12T06:33:24.674Z,101739.03
2023-05-12T06:35:28.199Z,101740.06
2023-05-12T06:37:31.591Z,101741.06
2023-05-12T06:39:34.970Z,101747.56
2023-05-12T06:41:39.778Z,101739.94
2023-05-12T06:43:43.281Z,101753.44
2023-05-12T06:45:46.879Z,101745.75
2023-05-12T06:47:50.347Z,101747.72
2023-05-12T06:49:55.006Z,101751.59
2023-05-12T06:51:58.455Z,101756.19
2023-05-12T06:54:01.936Z,101746.81
2023-05-12T06:56:07.768Z,101751.66
2023-05-12T06:58:12.743Z,101758.16
2023-05-12T07:00:18.591Z,101760.25
2023-05-12T07:02:25.686Z,101748.34
2023-05-12T07:04:29.778Z,101745.97
2023-05-12T07:06:34.562Z,101751.63
2023-05-12T07:08:37.907Z,101752.69
2023-05-12T07:10:41.383Z,101761.00
2023-05-12T07:12:44.780Z,101758.59
2023-05-12T07:14:49.593Z,101764.00
2023-05-12T07:16:53.113Z,101758.00
2023-05-12T07:18:56.608Z,101767.88
2023-05-12T07:21:00.147Z,101769.03
2023-05-12T07:23:03.795Z,101771.94
2023-05-12T07:25:08.163Z,101764.22
2023-05-12T07:27:11.660Z,101766.97
2023-05-12T07:29:15.142Z,101769.13
2023-05-12T07:31:20.304Z,101765.88
2023-05-12T07:33:23.733Z,101767.03
2023-05-12T07:35:27.076Z,101774.38
2023-05-12T07:37:30.620Z,101777.38
2023-05-12T07:39:34.034Z,101775.06
2023-05-12T07:41:39.557Z,101770.06
2023-05-12T07:43:42.876Z,101773.44
2023-05-12T07:45:46.816Z,101770.66
2023-05-12T07:47:52.177Z,101774.16
2023-05-12T07:49:55.860Z,101779.31
2023-05-12T07:51:59.242Z,101770.97
2023-05-12T07:54:02.679Z,101775.78
2023-05-12T07:56:08.204Z,101783.94
2023-05-12T07:58:11.776Z,101779.78
2023-05-12T08:00:15.894Z,101781.00
2023-05-12T08:02:20.772Z,101780.50
2023-05-12T08:04:28.695Z,101783.31
2023-05-12T08:06:32.358Z,101782.78
2023-05-12T08:08:36.633Z,101784.22
2023-05-12T08:10:40.001Z,101788.44
2023-05-12T08:12:43.939Z,101787.34
2023-05-12T08:14:47.457Z,101778.13
2023-05-12T08:16:50.879Z,101785.84
2023-05-12T08:18:56.876Z,101788.06
2023-05-12T08:21:01.724Z,101785.72
2023-05-12T08:23:05.102Z,101787.59
2023-05-12T08:25:11.732Z,101784.69
2023-05-12T08:27:15.944Z,101791.47
2023-05-12T08:29:19.978Z,101793.06
2023-05-12T08:31:23.617Z,101797.31
2023-05-12T08:33:27.085Z,101792.72
2023-05-12T08:35:30.830Z,101793.72
2023-05-12T08:37:35.728Z,101794.41
2023-05-12T08:39:39.152Z,101798.63
2023-05-12T08:41:45.157Z,101792.19
2023-05-12T08:43:53.299Z,101796.25
2023-05-12T08:45:58.503Z,101793.03
2023-05-12T08:48:02.326Z,101796.09
2023-05-12T08:50:07.089Z,101797.38
2023-05-12T08:52:11.362Z,101792.47
2023-05-12T08:54:18.027Z,101795.97
2023-05-12T08:58:40.390Z,101797.25
2023-05-12T09:00:47.011Z,101795.00
2023-05-12T09:02:54.461Z,101791.06
2023-05-12T09:04:58.410Z,101797.22
2023-05-12T09:07:01.846Z,101794.94
2023-05-12T09:09:05.280Z,101792.00
2023-05-12T09:11:13.184Z,101795.22
2023-05-12T09:13:21.381Z,101787.91
2023-05-12T09:15:45.302Z,101789.16
2023-05-12T09:17:48.706Z,101792.94
2023-05-12T09:19:52.100Z,101783.66
2023-05-12T09:21:56.158Z,101782.38
2023-05-12T09:24:00.950Z,101790.78
2023-05-12T09:26:04.442Z,101782.50
2023-05-12T09:28:09.865Z,101789.34
2023-05-12T09:30:14.434Z,101778.56
2023-05-12T09:32:17.880Z,101780.81
2023-05-12T09:34:28.876Z,101786.91
2023-05-12T09:36:32.435Z,101784.22
2023-05-12T09:38:35.782Z,101786.00
2023-05-12T09:40:39.748Z,101778.06
2023-05-12T09:42:43.973Z,101772.81
2023-05-12T09:44:48.908Z,101775.59
2023-05-12T09:46:52.856Z,101777.47
2023-05-12T09:48:57.731Z,101776.44
2023-05-12T09:51:01.084Z,101774.38
2023-05-12T09:53:08.050Z,101781.94
2023-05-12T09:55:13.371Z,101779.97
2023-05-12T09:57:17.705Z,101783.31
2023-05-12T09:59:26.765Z,101777.38
2023-05-12T10:01:32.722Z,101785.75
2023-05-12T10:03:37.641Z,101784.47
2023-05-12T10:05:48.789Z,101785.47
2023-05-12T10:07:55.406Z,101783.78
2023-05-12T10:10:02.320Z,101784.47
2023-05-12T10:12:06.423Z,101778.78
2023-05-12T10:14:10.108Z,101776.66
2023-05-12T10:16:14.091Z,101780.53
2023-05-12T10:18:19.515Z,101778.94
2023-05-12T10:20:23.066Z,101776.16
2023-05-12T10:22:27.884Z,101781.09
2023-05-12T10:24:31.361Z,101777.00
2023-05-12T10:26:35.061Z,101778.59
2023-05-12T10:28:38.494Z,101780.28
2023-05-12T10:30:43.404Z,101779.03
2023-05-12T10:32:47.023Z,101778.03
2023-05-12T10:34:52.154Z,101768.50
2023-05-12T10:36:55.528Z,101778.41
2023-05-12T10:39:07.067Z,101771.25
2023-05-12T10:41:11.130Z,101778.56
2023-05-12T10:43:23.154Z,101764.91
2023-05-12T10:45:26.856Z,101763.47
2023-05-12T10:47:38.815Z,101766.97
2023-05-12T10:49:43.500Z,101768.41
2023-05-12T10:51:51.160Z,101775.53
2023-05-12T10:53:58.105Z,101771.00
2023-05-12T10:56:05.680Z,101767.09
2023-05-12T10:58:12.304Z,101762.91
2023-05-12T11:00:17.259Z,101771.13
2023-05-12T11:02:27.445Z,101777.41
2023-05-12T11:04:40.826Z,101778.22
2023-05-12T11:06:46.981Z,101783.63
2023-05-12T11:08:53.303Z,101785.94
2023-05-12T11:10:59.192Z,101783.34
2023-05-12T11:13:03.981Z,101782.78
2023-05-12T11:15:08.427Z,101777.50
2023-05-12T11:17:12.031Z,101781.31
2023-05-12T11:19:15.494Z,101783.91
2023-05-12T11:21:18.983Z,101786.19
2023-05-12T11:23:27.369Z,101782.00
2023-05-12T11:25:32.167Z,101780.47
2023-05-12T11:27:35.935Z,101783.28
2023-05-12T11:29:40.179Z,101783.81
2023-05-12T11:31:47.914Z,101778.56
2023-05-12T11:33:58.676Z,101773.31
2023-05-12T11:36:08.394Z,101780.19
2023-05-12T11:38:16.989Z,101774.59
2023-05-12T11:40:21.909Z,101784.53
2023-05-12T11:42:26.775Z,101772.88
2023-05-12T11:44:30.438Z,101779.38
2023-05-12T11:46:33.794Z,101781.03
2023-05-12T11:48:37.131Z,101784.84
2023-05-12T11:50:41.711Z,101785.06
2023-05-12T11:52:46.447Z,101788.81
2023-05-12T11:54:50.821Z,101784.06
2023-05-12T11:56:55.582Z,101791.44
2023-05-12T11:59:00.530Z,101779.13
2023-05-12T12:01:10.741Z,101780.63
2023-05-12T12:03:16.589Z,101782.94
2023-05-12T12:05:21.410Z,101793.13
2023-05-12T12:07:32.040Z,101792.19
2023-05-12T12:09:36.537Z,101796.13
2023-05-12T12:11:39.912Z,101787.88
2023-05-12T12:13:50.279Z,101782.75
2023-05-12T12:15:55.088Z,101784.94
2023-05-12T12:17:58.844Z,101788.19
2023-05-12T12:20:02.334Z,101780.75
2023-05-12T12:22:06.273Z,101788.94
2023-05-12T12:24:09.791Z,101781.78
2023-05-12T12:26:14.327Z,101782.47
2023-05-12T12:28:17.623Z,101789.31
2023-05-12T12:30:21.391Z,101789.25
2023-05-12T12:32:26.160Z,101785.50
2023-05-12T12:34:29.708Z,101784.47
2023-05-12T12:36:33.418Z,101785.81
2023-05-12T12:38:36.863Z,101796.59
2023-05-12T12:40:40.425Z,101783.91
2023-05-12T12:42:43.729Z,101789.97
2023-05-12T12:44:50.270Z,101779.13
2023-05-12T12:46:53.779Z,101775.25
2023-05-12T12:48:59.246Z,101782.66
2023-05-12T12:51:02.775Z,101786.34
2023-05-12T12:53:06.341Z,101781.97
2023-05-12T12:55:10.448Z,101781.00
2023-05-12T12:57:13.813Z,101779.69
2023-05-12T12:59:17.208Z,101768.44
2023-05-12T13:01:20.642Z,101773.59
2023-05-12T13:03:25.081Z,101773.22
2023-05-12T13:05:29.853Z,101767.31
2023-05-12T13:07:33.437Z,101773.09
2023-05-12T13:09:36.810Z,101766.34
2023-05-12T13:11:40.626Z,101772.41
2023-05-12T13:13:44.020Z,101773.13
2023-05-12T13:15:47.533Z,101767.47
2023-05-12T13:17:51.900Z,101770.09
2023-05-12T13:19:59.278Z,101768.22
2023-05-12T13:22:04.368Z,101770.88
2023-05-12T13:24:07.806Z,101771.31
2023-05-12T13:26:11.103Z,101767.56
2023-05-12T13:28:14.457Z,101762.88
2023-05-12T13:30:17.795Z,101771.56
2023-05-12T13:32:21.802Z,101769.78
2023-05-12T13:34:25.196Z,101776.13
2023-05-12T13:36:28.582Z,101772.88
2023-05-12T13:38:33.940Z,101770.75
2023-05-12T13:40:37.486Z,101769.84
2023-05-12T13:42:40.824Z,101773.28
2023-05-12T13:44:44.205Z,101763.75
2023-05-12T13:46:47.634Z,101765.78
2023-05-12T13:48:52.437Z,101769.47
2023-05-12T13:50:55.919Z,101770.97
2023-05-12T13:52:59.269Z,101766.34
2023-05-12T13:55:04.386Z,101766.19
2023-05-12T13:57:07.906Z,101764.28
2023-05-12T13:59:11.233Z,101771.09
2023-05-12T14:01:14.678Z,101773.16
2023-05-12T14:03:18.179Z,101763.09
2023-05-12T14:05:22.133Z,101757.56
2023-05-12T14:07:25.692Z,101759.94
2023-05-12T14:09:29.001Z,101761.91
2023-05-12T14:11:34.596Z,101750.00
2023-05-12T14:13:38.217Z,101748.69
2023-05-12T14:15:48.682Z,101754.59
2023-05-12T14:17:54.666Z,101762.94
2023-05-12T14:19:58.202Z,101754.41
2023-05-12T14:22:03.206Z,101756.66
2023-05-12T14:24:08.692Z,101747.91
2023-05-12T14:26:12.090Z,101749.41
2023-05-12T14:28:16.884Z,101757.16
2023-05-12T14:30:21.833Z,101744.69
2023-05-12T14:32:25.213Z,101751.25
2023-05-12T14:34:28.633Z,101753.63
2023-05-12T14:36:32.209Z,101753.44
2023-05-12T14:38:35.789Z,101758.59
2023-05-12T14:40:40.328Z,101761.91
2023-05-12T14:42:43.798Z,101751.13
2023-05-12T14:44:48.554Z,101750.94
2023-05-12T14:46:51.854Z,101754.88
2023-05-12T14:48:55.451Z,101747.81
2023-05-12T14:50:59.071Z,101750.91
2023-05-12T14:53:02.559Z,101754.56
2023-05-12T14:55:11.583Z,101761.63
2023-05-12T14:57:15.120Z,101756.03
2023-05-12T14:59:18.512Z,101757.97
2023-05-12T15:01:23.639Z,101756.41
2023-05-12T15:03:27.096Z,101761.41
2023-05-12T15:05:52.773Z,101768.84
2023-05-12T15:07:54.367Z,101769.13
2023-05-12T15:09:57.670Z,101763.59
2023-05-12T15:12:02.205Z,101774.06
2023-05-12T15:14:05.833Z,101768.41
2023-05-12T15:16:09.321Z,101776.31
2023-05-12T15:18:14.286Z,101772.78
2023-05-12T15:20:17.702Z,101768.41
2023-05-12T15:22:21.145Z,101763.78
2023-05-12T15:24:24.585Z,101768.41
2023-05-12T15:26:33.818Z,101764.00
2023-05-12T15:28:38.524Z,101752.50
2023-05-12T15:30:41.876Z,101758.34
2023-05-12T15:32:45.314Z,101765.72
2023-05-12T15:34:49.997Z,101755.59
2023-05-12T15:36:53.336Z,101762.28
2023-05-12T15:38:56.726Z,101765.16
2023-05-12T15:41:00.341Z,101766.53
2023-05-12T15:43:05.040Z,101768.28
2023-05-12T15:45:09.742Z,101769.28
2023-05-12T15:47:13.034Z,101762.47
2023-05-12T15:49:16.366Z,101771.38
2023-05-12T15:51:21.320Z,101773.13
2023-05-12T15:53:24.698Z,101769.69
2023-05-12T15:55:28.228Z,101765.88
2023-05-12T15:57:31.801Z,101771.28
2023-05-12T15:59:35.790Z,101772.56
2023-05-12T16:01:40.235Z,101764.66
2023-05-12T16:03:44.780Z,101777.16
2023-05-12T16:05:49.029Z,101779.22
2023-05-12T16:07:54.972Z,101779.09
2023-05-12T16:09:59.617Z,101772.56
2023-05-12T16:12:03.700Z,101768.97
2023-05-12T16:14:07.806Z,101769.41
2023-05-12T16:16:12.354Z,101771.16
2023-05-12T16:18:17.149Z,101765.19
2023-05-12T16:20:22.202Z,101766.59
2023-05-12T16:22:27.109Z,101766.28
2023-05-12T16:24:33.637Z,101758.38
2023-05-12T16:26:42.113Z,101762.88
2023-05-12T16:28:46.062Z,101760.22
2023-05-12T16:30:50.530Z,101762.53
2023-05-12T16:32:55.623Z,101762.03
2023-05-12T16:35:01.332Z,101761.16
2023-05-12T16:37:10.044Z,101763.50
2023-05-12T16:39:14.855Z,101759.41
2023-05-12T16:41:20.855Z,101760.38
2023-05-12T16:43:24.887Z,101761.03
2023-05-12T16:45:29.170Z,101760.81
2023-05-12T16:47:33.119Z,101761.47
2023-05-12T16:49:40.693Z,101762.97
2023-05-12T16:51:44.649Z,101765.28
2023-05-12T16:53:48.187Z,101762.06
2023-05-12T16:55:54.996Z,101771.25
2023-05-12T16:58:00.572Z,101758.34
2023-05-12T17:00:09.710Z,101764.63
2023-05-12T17:02:14.040Z,101766.44
2023-05-12T17:04:18.529Z,101767.34
2023-05-12T17:06:23.203Z,101766.28
2023-05-12T17:08:27.463Z,101768.47
2023-05-12T17:10:33.243Z,101766.41
2023-05-12T17:12:38.117Z,101758.56
2023-05-12T17:14:47.872Z,101766.19
2023-05-12T17:16:56.782Z,101776.97
2023-05-12T17:21:08.900Z,101781.34
2023-05-12T17:23:12.920Z,101773.25
2023-05-12T17:25:17.093Z,101777.84
2023-05-12T17:27:23.804Z,101784.06
2023-05-12T17:29:28.608Z,101779.78
2023-05-12T17:31:34.145Z,101775.78
2023-05-12T17:33:38.213Z,101779.81
2023-05-12T17:35:41.980Z,101780.16
2023-05-12T17:37:45.555Z,101781.03
2023-05-12T17:39:50.639Z,101786.13
2023-05-12T17:41:54.169Z,101790.09
2023-05-12T17:43:57.742Z,101787.56
2023-05-12T17:46:01.728Z,101792.31
2023-05-12T17:48:07.219Z,101782.09
2023-05-12T17:50:12.271Z,101794.03
2023-05-12T17:52:15.790Z,101792.94
2023-05-12T17:54:19.267Z,101798.28
2023-05-12T17:56:22.815Z,101795.78
2023-05-12T17:58:26.491Z,101804.09
2023-05-12T18:00:29.984Z,101795.28
2023-05-12T18:02:33.605Z,101797.28
2023-05-12T18:04:38.772Z,101809.59
2023-05-12T18:06:42.552Z,101809.13
2023-05-12T18:08:46.854Z,101803.38
2023-05-12T18:10:50.491Z,101808.03
2023-05-12T18:12:55.538Z,101807.31
2023-05-12T18:14:59.049Z,101811.56
2023-05-12T18:17:03.182Z,101807.06
2023-05-12T18:19:07.723Z,101810.97
2023-05-12T18:21:12.783Z,101812.78
2023-05-12T18:23:16.134Z,101821.22
2023-05-12T18:25:20.530Z,101823.88
2023-05-12T18:27:24.455Z,101819.25
2023-05-12T18:29:28.058Z,101824.28
2023-05-12T18:31:31.625Z,101825.00
2023-05-12T18:33:36.002Z,101826.13
2023-05-12T18:35:39.392Z,101826.41
2023-05-12T18:37:44.362Z,101824.69
2023-05-12T18:39:47.712Z,101828.31
2023-05-12T18:41:51.883Z,101829.53
2023-05-12T18:43:55.395Z,101830.75
2023-05-12T18:45:58.962Z,101817.75
2023-05-12T18:48:02.371Z,101820.47
2023-05-12T18:50:06.898Z,101829.31
2023-05-12T18:52:10.522Z,101824.84
2023-05-12T18:54:15.286Z,101836.97
2023-05-12T18:56:18.773Z,101835.88
2023-05-12T18:58:22.213Z,101832.78
2023-05-12T19:00:27.774Z,101842.72
2023-05-12T19:02:31.216Z,101835.88
2023-05-12T19:04:34.684Z,101840.25
2023-05-12T19:06:38.150Z,101834.09
2023-05-12T19:08:41.742Z,101844.72
2023-05-12T19:10:47.388Z,101842.78
2023-05-12T19:12:51.644Z,101847.09
2023-05-12T19:14:55.709Z,101847.84
2023-05-12T19:17:00.035Z,101853.84
2023-05-12T19:19:04.996Z,101850.94
2023-05-12T19:21:10.598Z,101855.16
2023-05-12T19:23:14.606Z,101855.75
2023-05-12T19:25:20.126Z,101852.84
2023-05-12T19:27:28.234Z,101856.94
2023-05-12T19:29:31.682Z,101858.22
2023-05-12T19:31:36.672Z,101869.41
2023-05-12T19:33:41.149Z,101863.59
2023-05-12T19:35:48.122Z,101861.50
2023-05-12T19:37:53.423Z,101860.28
2023-05-12T19:40:02.546Z,101865.16
2023-05-12T19:42:10.225Z,101872.59
2023-05-12T19:44:17.901Z,101865.88
2023-05-12T19:46:21.503Z,101876.06
2023-05-12T19:48:25.032Z,101877.97
2023-05-12T19:50:29.880Z,101874.81
2023-05-12T19:52:34.520Z,101872.50
2023-05-12T19:54:38.258Z,101881.59
2023-05-12T19:56:41.896Z,101882.91
2023-05-12T19:58:45.477Z,101889.25
2023-05-12T20:00:50.932Z,101891.38
2023-05-12T20:02:54.540Z,101884.63
2023-05-12T20:05:00.490Z,101885.91
2023-05-12T20:07:03.940Z,101895.09
2023-05-12T20:09:07.964Z,101891.03
2023-05-12T20:11:11.574Z,101889.75
2023-05-12T20:13:15.031Z,101895.47
2023-05-12T20:15:18.980Z,101898.53
2023-05-12T20:17:23.929Z,101897.19
2023-05-12T20:19:27.903Z,101895.78
2023-05-12T20:21:32.493Z,101900.53
2023-05-12T20:23:36.306Z,101908.88
2023-05-12T20:25:39.710Z,101902.34
2023-05-12T20:27:46.570Z,101904.56
2023-05-12T20:29:49.970Z,101906.78
2023-05-12T20:31:53.783Z,101910.66
2023-05-12T20:33:58.687Z,101907.59
2023-05-12T20:36:02.249Z,101907.06
2023-05-12T20:38:05.652Z,101907.47
2023-05-12T20:40:10.810Z,101917.50
2023-05-12T20:42:14.260Z,101913.38
2023-05-12T20:44:17.754Z,101920.75
2023-05-12T20:46:21.376Z,101921.91
2023-05-12T20:48:24.819Z,101926.53
2023-05-12T20:50:29.608Z,101926.84
2023-05-12T20:52:33.772Z,101930.63
2023-05-12T20:54:37.148Z,101936.09
2023-05-12T20:56:40.529Z,101934.59
2023-05-12T20:58:43.978Z,101927.84
2023-05-12T21:00:47.338Z,101920.34
2023-05-12T21:02:52.356Z,101924.88
2023-05-12T21:04:56.119Z,101930.34
2023-05-12T21:07:00.850Z,101927.94
2023-05-12T21:09:05.056Z,101924.75
2023-05-12T21:11:16.129Z,101929.38
2023-05-12T21:13:19.580Z,101931.28
2023-05-12T21:15:24.795Z,101931.50
2023-05-12T21:17:29.399Z,101929.97
2023-05-12T21:19:32.914Z,101930.19
2023-05-12T21:21:36.429Z,101931.31
2023-05-12T21:23:41.219Z,101932.44
2023-05-12T21:25:44.640Z,101936.22
2023-05-12T21:27:48.068Z,101940.00
2023-05-12T21:29:51.449Z,101934.94
2023-05-12T21:31:56.695Z,101940.38
2023-05-12T21:34:00.474Z,101934.44
2023-05-12T21:36:03.906Z,101931.16
2023-05-12T21:38:08.606Z,101937.56
2023-05-12T21:40:14.802Z,101937.94
2023-05-12T21:42:18.279Z,101934.75
2023-05-12T21:44:21.739Z,101941.16
2023-05-12T21:46:25.247Z,101943.13
2023-05-12T21:48:28.605Z,101937.19
2023-05-12T21:50:31.955Z,101949.69
2023-05-12T21:52:35.339Z,101944.69
2023-05-12T21:54:38.775Z,101945.72
2023-05-12T21:56:43.563Z,101939.81
2023-05-12T21:58:47.263Z,101945.28
2023-05-12T22:00:52.399Z,101949.03
2023-05-12T22:02:55.996Z,101948.34
2023-05-12T22:04:59.556Z,101952.03
2023-05-12T22:07:03.010Z,101948.72
2023-05-12T22:09:06.393Z,101945.41
2023-05-12T22:11:10.179Z,101951.81
2023-05-12T22:13:14.975Z,101956.44
2023-05-12T22:15:18.732Z,101954.91
2023-05-12T22:17:22.288Z,101952.50
2023-05-12T22:19:25.790Z,101944.03
2023-05-12T22:21:29.814Z,101950.31
2023-05-12T22:23:33.230Z,101955.66
2023-05-12T22:25:38.004Z,101954.16
2023-05-12T22:27:41.391Z,101955.28
2023-05-12T22:29:46.170Z,101959.78
2023-05-12T22:31:49.587Z,101957.31
2023-05-12T22:33:52.965Z,101957.50
2023-05-12T22:35:56.322Z,101957.66
2023-05-12T22:37:59.765Z,101957.84
2023-05-12T22:40:03.943Z,101964.22
2023-05-12T22:42:07.901Z,101961.78
2023-05-12T22:44:11.614Z,101963.81
2023-05-12T22:46:16.465Z,101970.19
2023-05-12T22:48:20.185Z,101960.75
2023-05-12T22:50:24.184Z,101966.34
2023-05-12T22:52:28.171Z,101964.81
2023-05-12T22:54:31.559Z,101967.75
2023-05-12T22:56:34.944Z,101968.00
2023-05-12T22:58:38.288Z,101975.19
2023-05-12T23:00:41.759Z,101977.22
2023-05-12T23:02:46.560Z,101973.91
2023-05-12T23:04:49.951Z,101981.09
2023-05-12T23:06:53.334Z,101971.59
2023-05-12T23:08:56.959Z,101968.41
2023-05-12T23:11:00.295Z,101980.78
2023-05-12T23:13:03.822Z,101971.34
2023-05-12T23:15:08.630Z,101972.44
2023-05-12T23:17:12.122Z,101971.84
2023-05-12T23:19:16.920Z,101970.31
2023-05-12T23:21:20.285Z,101968.81
2023-05-12T23:23:23.650Z,101965.56
2023-05-12T23:25:26.907Z,101971.91
2023-05-12T23:27:30.055Z,101972.16
2023-05-12T23:29:34.523Z,101972.34
2023-05-12T23:31:37.906Z,101974.38
2023-05-12T23:33:41.265Z,101972.00
2023-05-12T23:35:46.054Z,101973.16
2023-05-12T23:37:49.361Z,101966.44
2023-05-12T23:39:52.650Z,101971.94
2023-05-12T23:41:55.930Z,101970.38
2023-05-12T23:43:59.219Z,101966.25
2023-05-12T23:46:02.523Z,101970.81
2023-05-12T23:48:06.446Z,101967.47